createdAt,value
2017-05-22T00:01:41.621Z,71.00
2017-05-22T00:04:10.516Z,71.50
2017-05-22T00:06:39.437Z,71.20
2017-05-22T00:09:08.326Z,70.90
2017-05-22T00:11:37.209Z,71.20
2017-05-22T00:14:06.133Z,71.60
2017-05-22T00:16:35.016Z,71.40
2017-05-22T00:19:03.910Z,71.40
2017-05-22T00:21:32.828Z,71.60
2017-05-22T00:24:00.958Z,71.60
2017-05-22T00:26:29.850Z,71.90
2017-05-22T00:28:58.779Z,71.30
2017-05-22T00:31:27.670Z,71.60
2017-05-22T00:33:56.559Z,72.30
2017-05-22T00:36:25.485Z,72.40
2017-05-22T00:38:54.383Z,72.30
2017-05-22T00:41:23.266Z,72.30
2017-05-22T00:43:52.190Z,72.00
2017-05-22T00:46:21.078Z,72.20
2017-05-22T00:48:49.983Z,72.60
2017-05-22T00:51:18.898Z,72.70
2017-05-22T00:53:47.785Z,73.20
2017-05-22T00:56:16.672Z,73.30
2017-05-22T00:58:45.603Z,73.60
2017-05-22T01:01:14.495Z,74.00
2017-05-22T01:03:43.385Z,73.70
2017-05-22T01:06:12.321Z,73.90
2017-05-22T01:08:41.211Z,73.90
2017-05-22T01:11:10.100Z,73.80
2017-05-22T01:13:39.120Z,73.80
2017-05-22T01:16:08.009Z,73.70
2017-05-22T01:18:36.902Z,74.20
2017-05-22T01:21:05.816Z,74.10
2017-05-22T01:23:34.705Z,73.40
2017-05-22T01:26:03.601Z,74.10
2017-05-22T01:28:32.533Z,74.50
2017-05-22T01:31:01.433Z,74.40
2017-05-22T01:33:30.319Z,74.40
2017-05-22T01:35:59.251Z,75.00
2017-05-22T01:38:28.137Z,74.80
2017-05-22T01:40:57.051Z,75.10
2017-05-22T01:43:26.066Z,74.70
2017-05-22T01:45:54.959Z,74.20
2017-05-22T01:48:23.849Z,73.80
2017-05-22T01:50:52.773Z,74.00
2017-05-22T01:53:21.657Z,74.20
2017-05-22T01:55:50.549Z,74.30
2017-05-22T01:58:19.481Z,74.30
2017-05-22T02:00:48.377Z,73.70
2017-05-22T02:03:17.265Z,74.50
2017-05-22T02:05:46.193Z,74.70
2017-05-22T02:08:15.088Z,74.50
2017-05-22T02:10:43.972Z,74.80
2017-05-22T02:13:12.901Z,74.90
2017-05-22T02:15:41.794Z,75.10
2017-05-22T02:18:10.684Z,75.50
2017-05-22T02:20:39.713Z,75.50
2017-05-22T02:23:08.596Z,75.60
2017-05-22T02:25:37.485Z,75.80
2017-05-22T02:28:06.417Z,75.20
2017-05-22T02:30:35.307Z,75.10
2017-05-22T02:33:04.197Z,75.70
2017-05-22T02:35:33.134Z,76.00
2017-05-22T02:38:02.021Z,75.50
2017-05-22T02:40:30.904Z,75.80
2017-05-22T02:42:59.939Z,76.10
2017-05-22T02:45:28.849Z,76.30
2017-05-22T02:47:57.742Z,76.20
2017-05-22T02:50:26.668Z,76.10
2017-05-22T02:52:55.556Z,75.80
2017-05-22T02:55:24.452Z,75.80
2017-05-22T02:57:53.372Z,76.00
2017-05-22T03:00:22.261Z,75.80
2017-05-22T03:02:51.158Z,75.60
2017-05-22T03:05:20.084Z,75.80
2017-05-22T03:07:48.977Z,76.30
2017-05-22T03:10:17.869Z,76.60
2017-05-22T03:12:47.074Z,76.50
2017-05-22T03:15:15.974Z,77.10
2017-05-22T03:17:44.867Z,77.20
2017-05-22T03:20:13.794Z,76.90
2017-05-22T03:22:42.681Z,76.60
2017-05-22T03:25:11.581Z,77.10
2017-05-22T03:27:40.513Z,77.00
2017-05-22T03:30:09.407Z,76.90
2017-05-22T03:32:38.290Z,77.10
2017-05-22T03:35:07.217Z,76.50
2017-05-22T03:37:36.114Z,77.00
2017-05-22T03:40:05.001Z,77.20
2017-05-22T03:42:33.930Z,77.20
2017-05-22T03:45:02.826Z,77.80
2017-05-22T03:47:31.728Z,77.80
2017-05-22T03:50:00.685Z,77.20
2017-05-22T03:52:29.576Z,77.50
2017-05-22T03:54:58.475Z,77.50
2017-05-22T03:57:27.413Z,77.80
2017-05-22T03:59:56.309Z,77.60
2017-05-22T04:02:25.197Z,78.10
2017-05-22T04:04:54.126Z,78.40
2017-05-22T04:07:23.030Z,78.60
2017-05-22T04:09:51.917Z,78.70
2017-05-22T04:12:20.846Z,78.90
2017-05-22T04:14:49.736Z,78.50
2017-05-22T04:17:18.629Z,78.80
2017-05-22T04:19:47.556Z,78.20
2017-05-22T04:22:16.443Z,78.00
2017-05-22T04:24:45.329Z,77.70
2017-05-22T04:27:14.257Z,77.70
2017-05-22T04:29:43.152Z,77.70
2017-05-22T04:32:12.044Z,78.00
2017-05-22T04:34:40.974Z,78.00
2017-05-22T04:37:09.877Z,76.70
2017-05-22T04:39:38.770Z,76.80
2017-05-22T04:42:07.704Z,77.20
2017-05-22T04:44:36.610Z,77.40
2017-05-22T04:47:05.532Z,77.00
2017-05-22T04:49:34.461Z,76.90
2017-05-22T04:52:03.361Z,76.70
2017-05-22T04:54:32.263Z,74.70
2017-05-22T04:57:01.202Z,74.40
2017-05-22T04:59:30.097Z,74.50
2017-05-22T05:01:58.997Z,73.60
2017-05-22T05:04:28.177Z,73.80
2017-05-22T05:06:57.077Z,73.50
2017-05-22T05:09:25.969Z,72.50
2017-05-22T05:11:54.905Z,71.40
2017-05-22T05:14:23.801Z,71.10
2017-05-22T05:16:52.692Z,70.50
2017-05-22T05:19:21.617Z,68.40
2017-05-22T05:21:50.510Z,69.50
2017-05-22T05:24:19.429Z,69.50
2017-05-22T05:26:48.614Z,71.00
2017-05-22T05:29:17.512Z,71.10
2017-05-22T05:31:46.413Z,69.40
2017-05-22T05:34:15.348Z,68.30
2017-05-22T05:36:44.240Z,69.10
2017-05-22T05:39:13.137Z,69.60
2017-05-22T05:41:42.058Z,67.20
2017-05-22T05:44:10.957Z,68.10
2017-05-22T05:46:39.849Z,65.30
2017-05-22T05:49:08.788Z,64.60
2017-05-22T05:51:37.676Z,64.30
2017-05-22T05:54:06.564Z,64.70
2017-05-22T05:56:35.494Z,63.50
2017-05-22T05:59:04.376Z,66.20
2017-05-22T06:01:33.276Z,66.30
2017-05-22T06:04:02.217Z,65.00
2017-05-22T06:06:31.111Z,63.50
2017-05-22T06:09:00.002Z,64.30
2017-05-22T06:11:28.924Z,65.50
2017-05-22T06:13:57.814Z,65.90
2017-05-22T06:16:26.705Z,64.90
2017-05-22T06:18:55.726Z,64.60
2017-05-22T06:21:24.613Z,62.80
2017-05-22T06:23:53.509Z,62.60
2017-05-22T06:26:22.446Z,61.20
2017-05-22T06:28:51.338Z,61.60
2017-05-22T06:31:20.225Z,61.60
2017-05-22T06:33:49.166Z,61.70
2017-05-22T06:36:18.128Z,62.50
2017-05-22T06:38:47.022Z,61.10
2017-05-22T06:41:15.950Z,60.30
2017-05-22T06:43:44.836Z,60.10
2017-05-22T06:46:13.726Z,61.40
2017-05-22T06:48:42.905Z,60.00
2017-05-22T06:51:11.794Z,61.90
2017-05-22T06:53:40.686Z,60.90
2017-05-22T06:56:09.614Z,59.10
2017-05-22T06:58:38.497Z,58.10
2017-05-22T07:01:07.380Z,58.80
2017-05-22T07:03:35.537Z,58.80
2017-05-22T07:06:04.426Z,60.40
2017-05-22T07:08:33.320Z,57.50
2017-05-22T07:11:02.324Z,57.30
2017-05-22T07:13:31.209Z,58.10
2017-05-22T07:16:00.094Z,59.50
2017-05-22T07:18:29.012Z,57.60
2017-05-22T07:20:57.922Z,56.80
2017-05-22T07:23:26.809Z,56.30
2017-05-22T07:25:55.734Z,56.60
2017-05-22T07:28:24.620Z,56.70
2017-05-22T07:30:52.737Z,57.00
2017-05-22T07:33:21.656Z,56.70
2017-05-22T07:35:49.774Z,56.70
2017-05-22T07:38:18.661Z,55.90
2017-05-22T07:40:47.670Z,56.30
2017-05-22T07:43:16.552Z,55.50
2017-05-22T07:45:45.435Z,55.40
2017-05-22T07:48:14.456Z,56.00
2017-05-22T07:50:43.336Z,55.70
2017-05-22T07:53:12.221Z,56.00
2017-05-22T07:55:41.145Z,56.20
2017-05-22T07:58:10.042Z,56.80
2017-05-22T08:00:38.921Z,56.60
2017-05-22T08:03:07.845Z,56.00
2017-05-22T08:05:36.724Z,55.30
2017-05-22T08:08:05.608Z,54.50
2017-05-22T08:10:34.540Z,55.30
2017-05-22T08:13:03.425Z,55.10
2017-05-22T08:15:32.322Z,55.40
2017-05-22T08:18:01.244Z,55.00
2017-05-22T08:20:30.123Z,56.00
2017-05-22T08:22:59.004Z,55.60
2017-05-22T08:25:28.044Z,56.80
2017-05-22T08:27:56.929Z,56.00
2017-05-22T08:30:25.811Z,55.10
2017-05-22T08:32:53.962Z,55.00
2017-05-22T08:35:22.845Z,54.70
2017-05-22T08:37:51.729Z,55.10
2017-05-22T08:40:20.753Z,54.60
2017-05-22T08:42:49.644Z,54.80
2017-05-22T08:45:18.529Z,55.80
2017-05-22T08:47:47.473Z,54.90
2017-05-22T08:50:16.366Z,54.70
2017-05-22T08:52:45.242Z,55.30
2017-05-22T08:55:14.248Z,54.20
2017-05-22T08:57:43.132Z,54.70
2017-05-22T09:00:12.021Z,56.70
2017-05-22T09:02:40.962Z,55.10
2017-05-22T09:05:09.840Z,51.30
2017-05-22T09:07:38.729Z,52.30
2017-05-22T09:10:07.655Z,51.30
2017-05-22T09:12:36.538Z,49.90
2017-05-22T09:15:05.425Z,51.10
2017-05-22T09:17:34.354Z,52.00
2017-05-22T09:20:02.476Z,52.00
2017-05-22T09:22:31.366Z,52.10
2017-05-22T09:24:59.505Z,52.10
2017-05-22T09:27:28.388Z,48.90
2017-05-22T09:29:57.269Z,48.80
2017-05-22T09:32:26.293Z,48.00
2017-05-22T09:34:55.183Z,48.60
2017-05-22T09:37:24.062Z,49.00
2017-05-22T09:39:52.982Z,49.30
2017-05-22T09:42:21.872Z,51.00
2017-05-22T09:44:50.749Z,52.10
2017-05-22T09:47:19.674Z,48.30
2017-05-22T09:49:48.565Z,47.70
2017-05-22T09:52:17.453Z,47.70
2017-05-22T09:54:46.393Z,48.30
2017-05-22T09:57:15.285Z,47.00
2017-05-22T09:59:44.179Z,47.00
2017-05-22T10:02:13.092Z,47.20
2017-05-22T10:04:41.218Z,47.20
2017-05-22T10:07:10.101Z,46.70
2017-05-22T10:09:39.021Z,47.10
2017-05-22T10:12:07.904Z,46.60
2017-05-22T10:14:36.795Z,46.20
2017-05-22T10:17:05.813Z,46.50
2017-05-22T10:19:34.698Z,48.40
2017-05-22T10:22:03.589Z,49.10
2017-05-22T10:24:32.512Z,45.20
2017-05-22T10:27:01.408Z,45.20
2017-05-22T10:29:30.293Z,45.30
2017-05-22T10:31:59.222Z,46.20
2017-05-22T10:34:28.138Z,45.70
2017-05-22T10:36:57.058Z,44.60
2017-05-22T10:39:26.026Z,44.60
2017-05-22T10:41:54.938Z,44.20
2017-05-22T10:44:23.854Z,46.00
2017-05-22T10:46:52.806Z,49.00
2017-05-22T10:49:21.722Z,44.70
2017-05-22T10:51:50.645Z,43.50
2017-05-22T10:54:19.677Z,43.60
2017-05-22T10:56:48.585Z,46.10
2017-05-22T10:59:17.490Z,42.20
2017-05-22T11:01:46.405Z,42.80
2017-05-22T11:04:15.305Z,42.10
2017-05-22T11:06:44.185Z,41.90
2017-05-22T11:09:13.107Z,43.70
2017-05-22T11:11:41.985Z,42.30
2017-05-22T11:14:10.871Z,43.90
2017-05-22T11:16:39.797Z,40.40
2017-05-22T11:19:08.686Z,43.30
2017-05-22T11:21:37.567Z,41.50
2017-05-22T11:24:06.518Z,42.80
2017-05-22T11:26:35.401Z,42.80
2017-05-22T11:29:04.294Z,41.30
2017-05-22T11:31:33.215Z,41.00
2017-05-22T11:34:02.104Z,40.90
2017-05-22T11:36:31.003Z,40.20
2017-05-22T11:38:59.923Z,38.50
2017-05-22T11:41:28.809Z,39.20
2017-05-22T11:46:34.017Z,36.30
2017-05-22T11:49:02.900Z,39.80
2017-05-22T11:51:31.781Z,39.20
2017-05-22T11:54:00.713Z,37.70
2017-05-22T11:56:29.620Z,37.30
2017-05-22T11:58:58.500Z,36.60
2017-05-22T12:01:27.417Z,35.80
2017-05-22T12:03:56.306Z,34.70
2017-05-22T12:06:25.185Z,34.80
2017-05-22T12:08:54.102Z,37.20
2017-05-22T12:11:22.989Z,37.00
2017-05-22T12:13:51.877Z,34.10
2017-05-22T12:16:20.792Z,34.00
2017-05-22T12:18:49.681Z,35.10
2017-05-22T12:21:18.565Z,34.50
2017-05-22T12:23:47.501Z,35.10
2017-05-22T12:26:16.397Z,32.40
2017-05-22T12:28:45.300Z,32.60
2017-05-22T12:31:14.223Z,31.50
2017-05-22T12:33:43.101Z,29.70
2017-05-22T12:36:11.994Z,29.40
2017-05-22T12:38:40.911Z,28.40
2017-05-22T12:41:09.793Z,27.20
2017-05-22T12:43:38.685Z,26.50
2017-05-22T12:46:08.498Z,25.70
2017-05-22T12:48:37.379Z,24.10
2017-05-22T12:51:06.267Z,23.40
2017-05-22T12:53:35.184Z,23.50
2017-05-22T12:56:04.093Z,20.70
2017-05-22T12:58:32.976Z,21.30
2017-05-22T13:01:01.905Z,20.60
2017-05-22T13:03:30.810Z,19.60
2017-05-22T13:05:59.693Z,19.10
2017-05-22T13:08:28.627Z,18.30
2017-05-22T13:10:57.516Z,18.80
2017-05-22T13:13:26.406Z,18.90
2017-05-22T13:15:55.332Z,18.90
2017-05-22T13:18:24.230Z,17.20
2017-05-22T13:20:53.122Z,18.20
2017-05-22T13:23:22.046Z,17.70
2017-05-22T13:25:50.933Z,17.30
2017-05-22T13:28:19.817Z,16.80
2017-05-22T13:30:48.829Z,18.00
2017-05-22T13:33:17.709Z,17.50
2017-05-22T13:35:46.594Z,18.80
2017-05-22T13:38:15.525Z,18.70
2017-05-22T13:40:44.421Z,18.40
2017-05-22T13:43:13.305Z,18.60
2017-05-22T13:45:42.221Z,16.10
2017-05-22T13:48:11.113Z,16.30
2017-05-22T13:50:40.026Z,16.50
2017-05-22T13:53:08.977Z,17.60
2017-05-22T13:55:37.872Z,18.10
2017-05-22T13:58:06.836Z,18.80
2017-05-22T14:00:35.766Z,16.50
2017-05-22T14:03:04.981Z,16.30
2017-05-22T14:05:33.853Z,17.50
2017-05-22T14:08:02.866Z,18.40
2017-05-22T14:10:31.829Z,19.40
2017-05-22T14:13:00.721Z,21.40
2017-05-22T14:15:29.791Z,22.30
2017-05-22T14:17:58.683Z,22.80
2017-05-22T14:20:27.569Z,23.70
2017-05-22T14:22:56.487Z,24.70
2017-05-22T14:25:25.405Z,27.90
2017-05-22T14:27:54.343Z,27.60
2017-05-22T14:30:23.277Z,28.60
2017-05-22T14:32:52.213Z,29.50
2017-05-22T14:35:21.092Z,29.40
2017-05-22T14:37:50.106Z,30.00
2017-05-22T14:40:19.037Z,30.90
2017-05-22T14:42:47.970Z,32.30
2017-05-22T14:45:16.886Z,31.80
2017-05-22T14:47:45.822Z,32.90
2017-05-22T14:50:14.704Z,32.70
2017-05-22T14:52:43.814Z,30.70
2017-05-22T14:55:12.729Z,32.10
2017-05-22T14:57:41.614Z,33.40
2017-05-22T15:00:10.629Z,33.20
2017-05-22T15:02:39.516Z,33.90
2017-05-22T15:05:08.506Z,34.60
2017-05-22T15:07:37.431Z,35.20
2017-05-22T15:10:06.314Z,34.30
2017-05-22T15:12:35.197Z,35.30
2017-05-22T15:15:04.122Z,36.30
2017-05-22T15:17:33.005Z,34.50
2017-05-22T15:20:01.892Z,34.30
2017-05-22T15:22:31.089Z,35.40
2017-05-22T15:24:59.969Z,36.00
2017-05-22T15:27:28.856Z,36.30
2017-05-22T15:29:57.881Z,35.60
2017-05-22T15:32:26.770Z,36.80
2017-05-22T15:34:55.662Z,35.70
2017-05-22T15:37:24.592Z,37.10
2017-05-22T15:39:53.488Z,36.30
2017-05-22T15:42:22.379Z,36.60
2017-05-22T15:44:51.289Z,37.50
2017-05-22T15:47:20.184Z,36.90
2017-05-22T15:49:49.072Z,37.00
2017-05-22T15:52:17.993Z,38.10
2017-05-22T15:54:46.877Z,38.50
2017-05-22T15:57:15.757Z,36.30
2017-05-22T15:59:44.777Z,38.30
2017-05-22T16:02:13.668Z,37.30
2017-05-22T16:04:42.553Z,36.50
2017-05-22T16:07:11.482Z,40.00
2017-05-22T16:09:40.372Z,42.10
2017-05-22T16:12:09.256Z,41.30
2017-05-22T16:14:38.261Z,38.50
2017-05-22T16:17:07.150Z,38.50
2017-05-22T16:19:36.039Z,40.60
2017-05-22T16:22:04.962Z,41.50
2017-05-22T16:24:33.850Z,40.70
2017-05-22T16:27:02.733Z,40.40
2017-05-22T16:29:31.657Z,40.20
2017-05-22T16:32:00.546Z,41.80
2017-05-22T16:34:29.442Z,42.00
2017-05-22T16:36:58.373Z,43.10
2017-05-22T16:39:27.262Z,42.30
2017-05-22T16:41:56.149Z,44.80
2017-05-22T16:44:25.162Z,45.90
2017-05-22T16:46:54.045Z,45.80
2017-05-22T16:49:22.942Z,47.50
2017-05-22T16:51:51.873Z,45.70
2017-05-22T16:54:20.806Z,46.70
2017-05-22T16:56:49.716Z,48.00
2017-05-22T16:59:18.641Z,49.40
2017-05-22T17:01:47.534Z,49.70
2017-05-22T17:04:16.418Z,49.70
2017-05-22T17:06:45.428Z,49.00
2017-05-22T17:09:14.318Z,51.40
2017-05-22T17:11:43.220Z,50.90
2017-05-22T17:14:12.147Z,51.40
2017-05-22T17:16:41.035Z,50.80
2017-05-22T17:19:09.922Z,50.20
2017-05-22T17:21:38.938Z,52.20
2017-05-22T17:24:07.829Z,56.90
2017-05-22T17:26:36.721Z,67.60
2017-05-22T17:29:05.666Z,73.80
2017-05-22T17:31:34.558Z,72.30
2017-05-22T17:34:03.449Z,75.80
2017-05-22T17:36:32.373Z,77.40
2017-05-22T17:39:01.337Z,76.70
2017-05-22T17:41:29.480Z,76.60
2017-05-22T17:43:57.655Z,73.00
2017-05-22T17:46:26.552Z,77.10
2017-05-22T17:48:55.461Z,74.10
2017-05-22T17:51:24.372Z,73.40
2017-05-22T17:53:53.262Z,73.60
2017-05-22T17:56:22.153Z,78.60
2017-05-22T17:58:51.066Z,76.30
2017-05-22T18:01:20.057Z,76.00
2017-05-22T18:03:48.929Z,76.40
2017-05-22T18:06:17.861Z,76.20
2017-05-22T18:08:46.751Z,71.00
2017-05-22T18:11:15.758Z,70.20
2017-05-22T18:13:44.649Z,67.20
2017-05-22T18:16:13.533Z,64.70
2017-05-22T18:18:42.515Z,67.10
2017-05-22T18:21:11.340Z,67.60
2017-05-22T18:23:40.239Z,68.40
2017-05-22T18:26:09.246Z,68.80
2017-05-22T18:28:38.141Z,69.00
2017-05-22T18:31:07.041Z,69.80
2017-05-22T18:33:35.979Z,72.00
2017-05-22T18:36:04.916Z,75.00
2017-05-22T18:38:33.890Z,75.00
2017-05-22T18:41:04.210Z,78.20
2017-05-22T18:43:33.151Z,78.10
2017-05-22T18:46:02.046Z,79.50
2017-05-22T18:48:31.091Z,81.00
2017-05-22T18:51:00.071Z,82.50
2017-05-22T18:53:29.008Z,85.50
2017-05-22T18:55:57.937Z,87.60
2017-05-22T18:58:26.841Z,89.00
2017-05-22T19:00:56.065Z,88.70
2017-05-22T19:03:25.920Z,87.90
2017-05-22T19:05:54.801Z,88.60
2017-05-22T19:08:23.686Z,88.30
2017-05-22T19:10:52.609Z,88.80
2017-05-22T19:13:21.496Z,90.30
2017-05-22T19:15:50.382Z,90.70
2017-05-22T19:18:19.297Z,87.80
2017-05-22T19:20:48.192Z,90.50
2017-05-22T19:23:17.087Z,90.90
2017-05-22T19:25:46.143Z,90.90
2017-05-22T19:28:15.033Z,90.90
2017-05-22T19:30:43.933Z,91.00
2017-05-22T19:33:12.857Z,91.10
2017-05-22T19:35:41.742Z,90.70
2017-05-22T19:38:10.619Z,90.30
2017-05-22T19:40:39.641Z,91.50
2017-05-22T19:43:08.890Z,90.70
2017-05-22T19:45:37.773Z,90.80
2017-05-22T19:48:06.686Z,90.60
2017-05-22T19:50:35.584Z,90.50
2017-05-22T19:53:04.474Z,90.60
2017-05-22T19:55:33.402Z,91.20
2017-05-22T19:58:02.292Z,91.60
2017-05-22T20:00:31.792Z,91.50
2017-05-22T20:03:00.718Z,92.00
2017-05-22T20:05:29.604Z,92.40
2017-05-22T20:07:58.498Z,92.20
2017-05-22T20:10:27.417Z,92.30
2017-05-22T20:12:56.316Z,93.10
2017-05-22T20:15:25.424Z,93.00
2017-05-22T20:17:54.468Z,93.30
2017-05-22T20:20:23.532Z,92.90
2017-05-22T20:22:52.489Z,93.40
2017-05-22T20:25:21.518Z,93.60
2017-05-22T20:27:50.402Z,93.50
2017-05-22T20:30:19.285Z,93.00
2017-05-22T20:32:48.303Z,93.30
2017-05-22T20:35:17.176Z,93.80
2017-05-22T20:37:46.061Z,93.40
2017-05-22T20:40:14.980Z,93.90
2017-05-22T20:42:43.862Z,93.90
2017-05-22T20:45:12.744Z,93.90
2017-05-22T20:47:41.674Z,93.60
2017-05-22T20:50:10.555Z,93.20
2017-05-22T20:52:39.481Z,93.70
2017-05-22T20:57:43.582Z,92.90
2017-05-22T21:00:12.510Z,92.60
2017-05-22T21:02:41.410Z,93.50
2017-05-22T21:05:10.308Z,93.70
2017-05-22T21:07:39.229Z,93.50
2017-05-22T21:10:08.125Z,93.80
2017-05-22T21:12:37.011Z,93.20
2017-05-22T21:15:05.928Z,93.40
2017-05-22T21:17:34.822Z,93.60
2017-05-22T21:20:03.706Z,93.70
2017-05-22T21:22:32.657Z,93.50
2017-05-22T21:25:01.547Z,93.90
2017-05-22T21:27:30.433Z,94.00
2017-05-22T21:29:59.458Z,93.90
2017-05-22T21:32:28.337Z,93.50
2017-05-22T21:34:57.232Z,93.80
2017-05-22T21:37:26.158Z,93.50
2017-05-22T21:39:55.033Z,93.50
2017-05-22T21:42:23.934Z,93.80
2017-05-22T21:44:52.862Z,93.50
2017-05-22T21:53:26.348Z,92.70
2017-05-22T21:55:55.291Z,92.80
2017-05-22T21:58:24.179Z,92.70
2017-05-22T22:00:53.062Z,92.60
2017-05-22T22:03:21.974Z,93.00
2017-05-22T22:05:50.850Z,93.40
2017-05-22T22:08:19.739Z,93.10
2017-05-22T22:10:48.649Z,93.60
2017-05-22T22:13:17.532Z,93.50
2017-05-22T22:15:46.412Z,93.80
2017-05-22T22:18:15.320Z,93.90
2017-05-22T22:20:45.120Z,93.50
2017-05-22T22:23:14.007Z,93.90
2017-05-22T22:25:42.924Z,94.20
2017-05-22T22:28:11.805Z,93.80
2017-05-22T22:30:40.690Z,93.80
2017-05-22T22:33:08.851Z,93.80
2017-05-22T22:35:38.340Z,93.30
2017-05-22T22:38:07.222Z,93.30
2017-05-22T22:40:36.140Z,93.80
2017-05-22T22:43:05.025Z,93.90
2017-05-22T22:45:33.910Z,94.00
2017-05-22T22:48:02.932Z,94.30
2017-05-22T22:50:31.811Z,93.70
2017-05-22T22:53:00.692Z,93.70
2017-05-22T22:55:29.609Z,93.60
2017-05-22T22:57:58.497Z,93.40
2017-05-22T23:00:27.385Z,93.70
2017-05-22T23:02:56.311Z,93.90
2017-05-22T23:05:25.193Z,93.10
2017-05-22T23:07:55.017Z,93.20
2017-05-22T23:10:23.936Z,93.50
2017-05-22T23:12:52.057Z,93.50
2017-05-22T23:15:22.045Z,93.80
2017-05-22T23:17:50.961Z,93.60
2017-05-22T23:20:19.854Z,92.90
2017-05-22T23:22:48.745Z,92.80
2017-05-22T23:25:17.664Z,93.40
2017-05-22T23:27:46.551Z,93.20
2017-05-22T23:30:15.433Z,93.40
2017-05-22T23:32:44.352Z,93.30
2017-05-22T23:35:13.240Z,93.30
2017-05-22T23:37:42.148Z,93.20
2017-05-22T23:40:11.065Z,93.40
2017-05-22T23:42:39.948Z,93.40
2017-05-22T23:45:08.830Z,93.70
2017-05-22T23:47:37.770Z,93.50
2017-05-22T23:50:06.714Z,93.80
2017-05-22T23:52:35.542Z,93.90
2017-05-22T23:55:04.470Z,94.20
2017-05-22T23:57:33.358Z,94.10
